sensor_id;sensor_type;location;lat;lon;timestamp;pressure;altitude;pressure_sealevel;temperature
71807;BMP280;59655;42.590;23.364;2023-02-11T00:01:07;92884.25;;;-4.80
71807;BMP280;59655;42.590;23.364;2023-02-11T00:03:33;92884.00;;;-4.90
71807;BMP280;59655;42.590;23.364;2023-02-11T00:06:02;92891.44;;;-4.92
71807;BMP280;59655;42.590;23.364;2023-02-11T00:08:28;92888.47;;;-4.90
71807;BMP280;59655;42.590;23.364;2023-02-11T00:10:55;92883.75;;;-4.99
71807;BMP280;59655;42.590;23.364;2023-02-11T00:13:22;92876.63;;;-4.91
71807;BMP280;59655;42.590;23.364;2023-02-11T00:15:48;92878.00;;;-4.83
71807;BMP280;59655;42.590;23.364;2023-02-11T00:18:13;92883.06;;;-5.03
71807;BMP280;59655;42.590;23.364;2023-02-11T00:20:39;92886.00;;;-5.01
71807;BMP280;59655;42.590;23.364;2023-02-11T00:23:04;92876.84;;;-5.06
71807;BMP280;59655;42.590;23.364;2023-02-11T00:25:30;92869.19;;;-5.13
71807;BMP280;59655;42.590;23.364;2023-02-11T00:27:55;92870.31;;;-5.14
71807;BMP280;59655;42.590;23.364;2023-02-11T00:30:21;92864.09;;;-5.20
71807;BMP280;59655;42.590;23.364;2023-02-11T00:32:46;92877.81;;;-5.23
71807;BMP280;59655;42.590;23.364;2023-02-11T00:35:12;92873.41;;;-5.26
71807;BMP280;59655;42.590;23.364;2023-02-11T00:37:37;92876.59;;;-5.15
71807;BMP280;59655;42.590;23.364;2023-02-11T00:40:04;92877.44;;;-5.22
71807;BMP280;59655;42.590;23.364;2023-02-11T00:42:29;92885.22;;;-5.25
71807;BMP280;59655;42.590;23.364;2023-02-11T00:44:55;92873.03;;;-5.25
71807;BMP280;59655;42.590;23.364;2023-02-11T00:47:20;92873.50;;;-5.33
71807;BMP280;59655;42.590;23.364;2023-02-11T00:49:46;92878.03;;;-5.41
71807;BMP280;59655;42.590;23.364;2023-02-11T00:52:11;92874.00;;;-5.42
71807;BMP280;59655;42.590;23.364;2023-02-11T00:54:37;92863.66;;;-5.42
71807;BMP280;59655;42.590;23.364;2023-02-11T00:57:02;92876.00;;;-5.57
71807;BMP280;59655;42.590;23.364;2023-02-11T00:59:28;92860.78;;;-5.51
71807;BMP280;59655;42.590;23.364;2023-02-11T01:01:53;92866.47;;;-5.33
71807;BMP280;59655;42.590;23.364;2023-02-11T01:04:18;92864.97;;;-5.30
71807;BMP280;59655;42.590;23.364;2023-02-11T01:06:44;92857.81;;;-5.46
71807;BMP280;59655;42.590;23.364;2023-02-11T01:09:09;92864.28;;;-5.65
71807;BMP280;59655;42.590;23.364;2023-02-11T01:11:35;92862.00;;;-5.60
71807;BMP280;59655;42.590;23.364;2023-02-11T01:14:00;92851.63;;;-5.56
71807;BMP280;59655;42.590;23.364;2023-02-11T01:16:26;92855.78;;;-5.62
71807;BMP280;59655;42.590;23.364;2023-02-11T01:18:52;92849.53;;;-5.68
71807;BMP280;59655;42.590;23.364;2023-02-11T01:21:18;92846.63;;;-5.70
71807;BMP280;59655;42.590;23.364;2023-02-11T01:23:43;92846.88;;;-5.61
71807;BMP280;59655;42.590;23.364;2023-02-11T01:26:09;92845.56;;;-5.73
71807;BMP280;59655;42.590;23.364;2023-02-11T01:28:34;92843.31;;;-5.71
71807;BMP280;59655;42.590;23.364;2023-02-11T01:31:01;92838.06;;;-5.64
71807;BMP280;59655;42.590;23.364;2023-02-11T01:33:26;92850.38;;;-5.75
71807;BMP280;59655;42.590;23.364;2023-02-11T01:35:52;92847.75;;;-5.71
71807;BMP280;59655;42.590;23.364;2023-02-11T01:38:22;92845.41;;;-5.58
71807;BMP280;59655;42.590;23.364;2023-02-11T01:40:58;92840.38;;;-5.73
71807;BMP280;59655;42.590;23.364;2023-02-11T01:43:25;92838.81;;;-5.67
71807;BMP280;59655;42.590;23.364;2023-02-11T01:46:13;92837.19;;;-5.84
71807;BMP280;59655;42.590;23.364;2023-02-11T01:48:44;92834.56;;;-5.81
71807;BMP280;59655;42.590;23.364;2023-02-11T01:51:15;92832.13;;;-5.91
71807;BMP280;59655;42.590;23.364;2023-02-11T01:53:42;92826.59;;;-5.93
71807;BMP280;59655;42.590;23.364;2023-02-11T01:56:27;92822.06;;;-5.86
71807;BMP280;59655;42.590;23.364;2023-02-11T01:59:17;92828.19;;;-5.72
71807;BMP280;59655;42.590;23.364;2023-02-11T02:01:49;92821.28;;;-5.79
71807;BMP280;59655;42.590;23.364;2023-02-11T02:04:18;92830.81;;;-5.76
71807;BMP280;59655;42.590;23.364;2023-02-11T02:06:55;92832.75;;;-5.53
71807;BMP280;59655;42.590;23.364;2023-02-11T02:09:26;92828.03;;;-5.58
71807;BMP280;59655;42.590;23.364;2023-02-11T02:11:53;92826.22;;;-5.61
71807;BMP280;59655;42.590;23.364;2023-02-11T02:14:18;92822.06;;;-5.55
71807;BMP280;59655;42.590;23.364;2023-02-11T02:16:44;92824.50;;;-5.71
71807;BMP280;59655;42.590;23.364;2023-02-11T02:19:46;92816.16;;;-5.86
71807;BMP280;59655;42.590;23.364;2023-02-11T02:22:25;92822.84;;;-5.89
71807;BMP280;59655;42.590;23.364;2023-02-11T02:30:52;92820.66;;;-5.90
71807;BMP280;59655;42.590;23.364;2023-02-11T02:36:04;92820.53;;;-6.14
71807;BMP280;59655;42.590;23.364;2023-02-11T02:38:58;92819.44;;;-6.17
71807;BMP280;59655;42.590;23.364;2023-02-11T02:41:30;92818.34;;;-6.16
71807;BMP280;59655;42.590;23.364;2023-02-11T02:43:56;92822.44;;;-6.18
71807;BMP280;59655;42.590;23.364;2023-02-11T02:46:28;92812.41;;;-6.12
71807;BMP280;59655;42.590;23.364;2023-02-11T02:48:55;92817.50;;;-6.05
71807;BMP280;59655;42.590;23.364;2023-02-11T02:51:26;92821.25;;;-6.10
71807;BMP280;59655;42.590;23.364;2023-02-11T02:56:53;92824.72;;;-6.24
71807;BMP280;59655;42.590;23.364;2023-02-11T03:04:55;92822.44;;;-6.18
71807;BMP280;59655;42.590;23.364;2023-02-11T03:07:36;92826.13;;;-6.19
71807;BMP280;59655;42.590;23.364;2023-02-11T03:10:09;92831.25;;;-6.16
71807;BMP280;59655;42.590;23.364;2023-02-11T03:12:38;92821.63;;;-6.15
71807;BMP280;59655;42.590;23.364;2023-02-11T03:15:05;92820.19;;;-6.16
71807;BMP280;59655;42.590;23.364;2023-02-11T03:17:33;92819.88;;;-6.22
71807;BMP280;59655;42.590;23.364;2023-02-11T03:20:01;92832.09;;;-6.26
71807;BMP280;59655;42.590;23.364;2023-02-11T03:22:40;92826.50;;;-6.21
71807;BMP280;59655;42.590;23.364;2023-02-11T03:25:07;92823.91;;;-6.21
71807;BMP280;59655;42.590;23.364;2023-02-11T03:27:52;92825.44;;;-6.27
71807;BMP280;59655;42.590;23.364;2023-02-11T03:30:42;92824.03;;;-6.31
71807;BMP280;59655;42.590;23.364;2023-02-11T03:33:17;92823.31;;;-6.32
71807;BMP280;59655;42.590;23.364;2023-02-11T03:35:53;92817.41;;;-6.32
71807;BMP280;59655;42.590;23.364;2023-02-11T03:38:44;92821.22;;;-6.48
71807;BMP280;59655;42.590;23.364;2023-02-11T03:41:13;92822.00;;;-6.51
71807;BMP280;59655;42.590;23.364;2023-02-11T03:43:47;92821.69;;;-6.57
71807;BMP280;59655;42.590;23.364;2023-02-11T03:46:16;92823.13;;;-6.56
71807;BMP280;59655;42.590;23.364;2023-02-11T03:48:51;92830.09;;;-6.49
71807;BMP280;59655;42.590;23.364;2023-02-11T03:51:19;92823.09;;;-6.48
71807;BMP280;59655;42.590;23.364;2023-02-11T03:53:46;92822.03;;;-6.55
71807;BMP280;59655;42.590;23.364;2023-02-11T03:56:20;92816.09;;;-6.51
71807;BMP280;59655;42.590;23.364;2023-02-11T03:58:47;92817.59;;;-6.50
71807;BMP280;59655;42.590;23.364;2023-02-11T04:01:12;92820.16;;;-6.54
71807;BMP280;59655;42.590;23.364;2023-02-11T04:03:38;92806.56;;;-6.58
71807;BMP280;59655;42.590;23.364;2023-02-11T04:06:04;92814.00;;;-6.64
71807;BMP280;59655;42.590;23.364;2023-02-11T04:08:30;92811.44;;;-6.64
71807;BMP280;59655;42.590;23.364;2023-02-11T04:10:56;92814.28;;;-6.51
71807;BMP280;59655;42.590;23.364;2023-02-11T04:13:22;92813.91;;;-6.53
71807;BMP280;59655;42.590;23.364;2023-02-11T04:15:47;92816.59;;;-6.64
71807;BMP280;59655;42.590;23.364;2023-02-11T04:18:12;92809.50;;;-6.56
71807;BMP280;59655;42.590;23.364;2023-02-11T04:20:38;92816.41;;;-6.46
71807;BMP280;59655;42.590;23.364;2023-02-11T04:23:03;92811.94;;;-6.42
71807;BMP280;59655;42.590;23.364;2023-02-11T04:25:29;92821.88;;;-6.37
71807;BMP280;59655;42.590;23.364;2023-02-11T04:27:54;92821.25;;;-6.51
71807;BMP280;59655;42.590;23.364;2023-02-11T04:30:20;92816.22;;;-6.62
71807;BMP280;59655;42.590;23.364;2023-02-11T04:32:45;92809.88;;;-6.58
71807;BMP280;59655;42.590;23.364;2023-02-11T04:35:11;92802.94;;;-6.61
71807;BMP280;59655;42.590;23.364;2023-02-11T04:37:36;92813.66;;;-6.69
71807;BMP280;59655;42.590;23.364;2023-02-11T04:40:02;92814.72;;;-6.67
71807;BMP280;59655;42.590;23.364;2023-02-11T04:42:28;92808.09;;;-6.61
71807;BMP280;59655;42.590;23.364;2023-02-11T04:44:53;92801.09;;;-6.64
71807;BMP280;59655;42.590;23.364;2023-02-11T04:47:19;92810.31;;;-6.66
71807;BMP280;59655;42.590;23.364;2023-02-11T04:49:44;92802.66;;;-6.74
71807;BMP280;59655;42.590;23.364;2023-02-11T04:52:09;92804.63;;;-6.88
71807;BMP280;59655;42.590;23.364;2023-02-11T04:54:35;92807.97;;;-6.92
71807;BMP280;59655;42.590;23.364;2023-02-11T04:57:00;92811.97;;;-6.87
71807;BMP280;59655;42.590;23.364;2023-02-11T04:59:26;92812.81;;;-7.01
71807;BMP280;59655;42.590;23.364;2023-02-11T05:01:51;92806.75;;;-6.80
71807;BMP280;59655;42.590;23.364;2023-02-11T05:04:17;92801.69;;;-6.91
71807;BMP280;59655;42.590;23.364;2023-02-11T05:06:42;92806.91;;;-6.98
71807;BMP280;59655;42.590;23.364;2023-02-11T05:09:10;92802.16;;;-7.03
71807;BMP280;59655;42.590;23.364;2023-02-11T05:11:36;92792.56;;;-7.02
71807;BMP280;59655;42.590;23.364;2023-02-11T05:14:03;92790.66;;;-6.95
71807;BMP280;59655;42.590;23.364;2023-02-11T05:16:29;92788.13;;;-7.02
71807;BMP280;59655;42.590;23.364;2023-02-11T05:18:54;92796.28;;;-7.07
71807;BMP280;59655;42.590;23.364;2023-02-11T05:21:20;92795.88;;;-7.02
71807;BMP280;59655;42.590;23.364;2023-02-11T05:23:46;92791.47;;;-7.05
71807;BMP280;59655;42.590;23.364;2023-02-11T05:26:12;92791.47;;;-7.05
71807;BMP280;59655;42.590;23.364;2023-02-11T05:28:38;92783.97;;;-6.88
71807;BMP280;59655;42.590;23.364;2023-02-11T05:31:04;92780.06;;;-7.07
71807;BMP280;59655;42.590;23.364;2023-02-11T05:33:30;92784.16;;;-7.17
71807;BMP280;59655;42.590;23.364;2023-02-11T05:36:00;92785.28;;;-7.15
71807;BMP280;59655;42.590;23.364;2023-02-11T05:38:26;92793.75;;;-7.14
71807;BMP280;59655;42.590;23.364;2023-02-11T05:40:51;92790.06;;;-7.13
71807;BMP280;59655;42.590;23.364;2023-02-11T05:43:17;92791.00;;;-6.93
71807;BMP280;59655;42.590;23.364;2023-02-11T05:45:42;92786.28;;;-6.98
71807;BMP280;59655;42.590;23.364;2023-02-11T05:48:08;92788.47;;;-7.00
71807;BMP280;59655;42.590;23.364;2023-02-11T05:50:33;92794.38;;;-6.99
71807;BMP280;59655;42.590;23.364;2023-02-11T05:52:58;92795.50;;;-7.00
71807;BMP280;59655;42.590;23.364;2023-02-11T05:55:24;92798.84;;;-7.07
71807;BMP280;59655;42.590;23.364;2023-02-11T05:57:49;92787.00;;;-6.97
71807;BMP280;59655;42.590;23.364;2023-02-11T06:00:15;92786.56;;;-6.88
71807;BMP280;59655;42.590;23.364;2023-02-11T06:02:40;92794.22;;;-6.81
71807;BMP280;59655;42.590;23.364;2023-02-11T06:05:06;92793.47;;;-6.78
71807;BMP280;59655;42.590;23.364;2023-02-11T06:07:32;92792.63;;;-6.64
71807;BMP280;59655;42.590;23.364;2023-02-11T06:09:57;92802.13;;;-6.58
71807;BMP280;59655;42.590;23.364;2023-02-11T06:12:23;92801.38;;;-6.51
71807;BMP280;59655;42.590;23.364;2023-02-11T06:14:49;92805.31;;;-6.43
71807;BMP280;59655;42.590;23.364;2023-02-11T06:17:14;92801.22;;;-6.37
71807;BMP280;59655;42.590;23.364;2023-02-11T06:19:40;92795.38;;;-6.44
71807;BMP280;59655;42.590;23.364;2023-02-11T06:22:05;92796.09;;;-6.44
71807;BMP280;59655;42.590;23.364;2023-02-11T06:24:30;92795.38;;;-6.44
71807;BMP280;59655;42.590;23.364;2023-02-11T06:26:56;92795.69;;;-6.35
71807;BMP280;59655;42.590;23.364;2023-02-11T06:29:21;92797.03;;;-6.23
71807;BMP280;59655;42.590;23.364;2023-02-11T06:31:47;92790.97;;;-6.09
71807;BMP280;59655;42.590;23.364;2023-02-11T06:34:13;92800.09;;;-6.01
71807;BMP280;59655;42.590;23.364;2023-02-11T06:36:39;92797.06;;;-5.92
71807;BMP280;59655;42.590;23.364;2023-02-11T06:39:05;92796.94;;;-5.82
71807;BMP280;59655;42.590;23.364;2023-02-11T06:41:31;92793.97;;;-5.84
71807;BMP280;59655;42.590;23.364;2023-02-11T06:43:56;92797.31;;;-5.80
71807;BMP280;59655;42.590;23.364;2023-02-11T06:46:22;92793.91;;;-5.76
71807;BMP280;59655;42.590;23.364;2023-02-11T06:48:47;92793.19;;;-5.77
71807;BMP280;59655;42.590;23.364;2023-02-11T06:51:14;92796.72;;;-5.64
71807;BMP280;59655;42.590;23.364;2023-02-11T06:53:42;92802.19;;;-5.58
71807;BMP280;59655;42.590;23.364;2023-02-11T06:56:10;92799.56;;;-5.54
71807;BMP280;59655;42.590;23.364;2023-02-11T06:58:37;92803.97;;;-5.55
71807;BMP280;59655;42.590;23.364;2023-02-11T07:01:04;92807.97;;;-5.47
71807;BMP280;59655;42.590;23.364;2023-02-11T07:03:32;92805.25;;;-5.40
71807;BMP280;59655;42.590;23.364;2023-02-11T07:05:59;92803.41;;;-5.39
71807;BMP280;59655;42.590;23.364;2023-02-11T07:08:24;92801.47;;;-5.31
71807;BMP280;59655;42.590;23.364;2023-02-11T07:10:49;92802.91;;;-5.30
71807;BMP280;59655;42.590;23.364;2023-02-11T07:13:15;92813.25;;;-5.30
71807;BMP280;59655;42.590;23.364;2023-02-11T07:15:40;92802.47;;;-5.25
71807;BMP280;59655;42.590;23.364;2023-02-11T07:18:05;92798.31;;;-5.19
71807;BMP280;59655;42.590;23.364;2023-02-11T07:20:31;92799.91;;;-5.25
71807;BMP280;59655;42.590;23.364;2023-02-11T07:22:56;92800.50;;;-5.14
71807;BMP280;59655;42.590;23.364;2023-02-11T07:25:22;92800.34;;;-5.07
71807;BMP280;59655;42.590;23.364;2023-02-11T07:27:48;92797.38;;;-5.05
71807;BMP280;59655;42.590;23.364;2023-02-11T07:30:14;92794.06;;;-5.06
71807;BMP280;59655;42.590;23.364;2023-02-11T07:32:39;92794.34;;;-5.00
71807;BMP280;59655;42.590;23.364;2023-02-11T07:35:05;92783.22;;;-4.97
71807;BMP280;59655;42.590;23.364;2023-02-11T07:37:33;92788.72;;;-4.95
71807;BMP280;59655;42.590;23.364;2023-02-11T07:39:58;92789.41;;;-4.91
71807;BMP280;59655;42.590;23.364;2023-02-11T07:42:24;92786.75;;;-4.87
71807;BMP280;59655;42.590;23.364;2023-02-11T07:44:49;92780.06;;;-4.85
71807;BMP280;59655;42.590;23.364;2023-02-11T07:47:14;92781.44;;;-4.80
71807;BMP280;59655;42.590;23.364;2023-02-11T07:49:40;92781.81;;;-4.78
71807;BMP280;59655;42.590;23.364;2023-02-11T07:52:05;92785.38;;;-4.72
71807;BMP280;59655;42.590;23.364;2023-02-11T07:54:31;92782.06;;;-4.72
71807;BMP280;59655;42.590;23.364;2023-02-11T07:56:56;92778.31;;;-4.68
71807;BMP280;59655;42.590;23.364;2023-02-11T07:59:23;92781.16;;;-4.62
71807;BMP280;59655;42.590;23.364;2023-02-11T08:01:49;92787.06;;;-4.61
71807;BMP280;59655;42.590;23.364;2023-02-11T08:04:16;92778.84;;;-4.56
71807;BMP280;59655;42.590;23.364;2023-02-11T08:06:43;92783.25;;;-4.53
71807;BMP280;59655;42.590;23.364;2023-02-11T08:09:13;92778.78;;;-4.53
71807;BMP280;59655;42.590;23.364;2023-02-11T08:11:39;92775.06;;;-4.52
71807;BMP280;59655;42.590;23.364;2023-02-11T08:14:04;92776.47;;;-4.47
71807;BMP280;59655;42.590;23.364;2023-02-11T08:16:33;92777.50;;;-4.45
71807;BMP280;59655;42.590;23.364;2023-02-11T08:19:00;92777.47;;;-4.41
71807;BMP280;59655;42.590;23.364;2023-02-11T08:21:27;92777.75;;;-4.35
71807;BMP280;59655;42.590;23.364;2023-02-11T08:23:53;92774.75;;;-4.34
71807;BMP280;59655;42.590;23.364;2023-02-11T08:26:21;92783.91;;;-4.29
71807;BMP280;59655;42.590;23.364;2023-02-11T08:28:49;92777.59;;;-4.28
71807;BMP280;59655;42.590;23.364;2023-02-11T08:31:20;92784.16;;;-4.23
71807;BMP280;59655;42.590;23.364;2023-02-11T08:33:45;92783.72;;;-4.18
71807;BMP280;59655;42.590;23.364;2023-02-11T08:36:17;92784.84;;;-4.19
71807;BMP280;59655;42.590;23.364;2023-02-11T08:38:43;92783.34;;;-4.17
71807;BMP280;59655;42.590;23.364;2023-02-11T08:41:09;92778.09;;;-4.13
71807;BMP280;59655;42.590;23.364;2023-02-11T08:43:36;92787.31;;;-4.12
71807;BMP280;59655;42.590;23.364;2023-02-11T08:46:06;92783.53;;;-4.08
71807;BMP280;59655;42.590;23.364;2023-02-11T08:48:32;92783.78;;;-4.02
71807;BMP280;59655;42.590;23.364;2023-02-11T08:50:57;92785.94;;;-4.00
71807;BMP280;59655;42.590;23.364;2023-02-11T08:53:23;92795.94;;;-3.99
71807;BMP280;59655;42.590;23.364;2023-02-11T08:55:50;92784.78;;;-3.96
71807;BMP280;59655;42.590;23.364;2023-02-11T08:58:16;92790.28;;;-3.94
71807;BMP280;59655;42.590;23.364;2023-02-11T09:00:41;92794.00;;;-3.95
71807;BMP280;59655;42.590;23.364;2023-02-11T09:03:12;92792.16;;;-3.94
71807;BMP280;59655;42.590;23.364;2023-02-11T09:05:42;92789.41;;;-3.87
71807;BMP280;59655;42.590;23.364;2023-02-11T09:08:08;92781.94;;;-3.85
71807;BMP280;59655;42.590;23.364;2023-02-11T09:10:34;92780.44;;;-3.82
71807;BMP280;59655;42.590;23.364;2023-02-11T09:12:59;92782.94;;;-3.79
71807;BMP280;59655;42.590;23.364;2023-02-11T09:15:25;92780.28;;;-3.75
71807;BMP280;59655;42.590;23.364;2023-02-11T09:17:50;92785.00;;;-3.70
71807;BMP280;59655;42.590;23.364;2023-02-11T09:20:16;92782.41;;;-3.70
71807;BMP280;59655;42.590;23.364;2023-02-11T09:22:41;92772.38;;;-3.68
71807;BMP280;59655;42.590;23.364;2023-02-11T09:25:07;92774.56;;;-3.66
71807;BMP280;59655;42.590;23.364;2023-02-11T09:27:33;92784.53;;;-3.65
71807;BMP280;59655;42.590;23.364;2023-02-11T09:29:58;92778.13;;;-3.60
71807;BMP280;59655;42.590;23.364;2023-02-11T09:32:24;92776.56;;;-3.58
71807;BMP280;59655;42.590;23.364;2023-02-11T09:34:49;92771.72;;;-3.56
71807;BMP280;59655;42.590;23.364;2023-02-11T09:37:14;92768.66;;;-3.51
71807;BMP280;59655;42.590;23.364;2023-02-11T09:39:40;92768.25;;;-3.49
71807;BMP280;59655;42.590;23.364;2023-02-11T09:42:14;92764.94;;;-3.49
71807;BMP280;59655;42.590;23.364;2023-02-11T09:44:44;92766.56;;;-3.39
71807;BMP280;59655;42.590;23.364;2023-02-11T09:50:04;92755.38;;;-3.36
71807;BMP280;59655;42.590;23.364;2023-02-11T09:52:39;92749.28;;;-3.29
71807;BMP280;59655;42.590;23.364;2023-02-11T09:57:55;92743.22;;;-3.23
71807;BMP280;59655;42.590;23.364;2023-02-11T10:00:30;92739.81;;;-3.20
71807;BMP280;59655;42.590;23.364;2023-02-11T10:08:43;92731.75;;;-3.09
71807;BMP280;59655;42.590;23.364;2023-02-11T10:23:40;92701.56;;;-2.74
71807;BMP280;59655;42.590;23.364;2023-02-11T10:26:15;92699.16;;;-2.81
71807;BMP280;59655;42.590;23.364;2023-02-11T10:28:43;92693.88;;;-2.77
71807;BMP280;59655;42.590;23.364;2023-02-11T10:31:15;92679.25;;;-2.71
71807;BMP280;59655;42.590;23.364;2023-02-11T10:33:46;92680.81;;;-2.74
71807;BMP280;59655;42.590;23.364;2023-02-11T10:36:15;92673.03;;;-2.74
71807;BMP280;59655;42.590;23.364;2023-02-11T10:38:41;92669.81;;;-2.65
71807;BMP280;59655;42.590;23.364;2023-02-11T10:41:18;92656.75;;;-2.61
71807;BMP280;59655;42.590;23.364;2023-02-11T10:43:45;92647.50;;;-2.62
71807;BMP280;59655;42.590;23.364;2023-02-11T10:46:17;92646.97;;;-2.57
71807;BMP280;59655;42.590;23.364;2023-02-11T10:48:44;92640.47;;;-2.49
71807;BMP280;59655;42.590;23.364;2023-02-11T10:51:32;92637.63;;;-2.42
71807;BMP280;59655;42.590;23.364;2023-02-11T10:56:39;92627.28;;;-2.29
71807;BMP280;59655;42.590;23.364;2023-02-11T11:01:55;92628.84;;;-2.31
71807;BMP280;59655;42.590;23.364;2023-02-11T11:06:51;92627.91;;;-2.25
71807;BMP280;59655;42.590;23.364;2023-02-11T11:09:29;92617.41;;;-2.21
71807;BMP280;59655;42.590;23.364;2023-02-11T11:12:23;92613.44;;;-2.13
71807;BMP280;59655;42.590;23.364;2023-02-11T11:15:17;92624.69;;;-2.16
71807;BMP280;59655;42.590;23.364;2023-02-11T11:17:43;92622.28;;;-2.10
71807;BMP280;59655;42.590;23.364;2023-02-11T11:22:44;92613.22;;;-2.06
71807;BMP280;59655;42.590;23.364;2023-02-11T11:25:26;92608.53;;;-1.98
71807;BMP280;59655;42.590;23.364;2023-02-11T11:27:55;92610.91;;;-1.91
71807;BMP280;59655;42.590;23.364;2023-02-11T11:30:22;92611.84;;;-1.85
71807;BMP280;59655;42.590;23.364;2023-02-11T11:32:50;92612.66;;;-1.75
71807;BMP280;59655;42.590;23.364;2023-02-11T11:35:26;92608.88;;;-1.61
71807;BMP280;59655;42.590;23.364;2023-02-11T11:37:54;92615.53;;;-1.60
71807;BMP280;59655;42.590;23.364;2023-02-11T11:40:26;92611.66;;;-1.55
71807;BMP280;59655;42.590;23.364;2023-02-11T11:45:39;92600.34;;;-1.62
71807;BMP280;59655;42.590;23.364;2023-02-11T11:48:29;92604.38;;;-1.61
71807;BMP280;59655;42.590;23.364;2023-02-11T11:51:03;92597.50;;;-1.54
71807;BMP280;59655;42.590;23.364;2023-02-11T11:53:36;92604.34;;;-1.48
71807;BMP280;59655;42.590;23.364;2023-02-11T11:56:22;92598.72;;;-1.46
71807;BMP280;59655;42.590;23.364;2023-02-11T11:58:49;92595.56;;;-1.41
71807;BMP280;59655;42.590;23.364;2023-02-11T12:06:32;92583.50;;;-1.35
71807;BMP280;59655;42.590;23.364;2023-02-11T12:18:07;92566.78;;;-1.25
71807;BMP280;59655;42.590;23.364;2023-02-11T12:26:19;92557.28;;;-1.19
71807;BMP280;59655;42.590;23.364;2023-02-11T12:32:07;92540.13;;;-1.07
71807;BMP280;59655;42.590;23.364;2023-02-11T12:39:50;92533.59;;;-0.80
71807;BMP280;59655;42.590;23.364;2023-02-11T12:49:00;92530.59;;;-0.69
71807;BMP280;59655;42.590;23.364;2023-02-11T12:54:58;92528.00;;;-0.69
71807;BMP280;59655;42.590;23.364;2023-02-11T12:57:27;92520.03;;;-0.66
71807;BMP280;59655;42.590;23.364;2023-02-11T13:00:06;92526.44;;;-0.57
71807;BMP280;59655;42.590;23.364;2023-02-11T13:05:24;92518.47;;;-0.45
71807;BMP280;59655;42.590;23.364;2023-02-11T13:07:54;92516.63;;;-0.44
71807;BMP280;59655;42.590;23.364;2023-02-11T13:10:39;92512.16;;;-0.34
71807;BMP280;59655;42.590;23.364;2023-02-11T13:13:20;92511.72;;;-0.33
71807;BMP280;59655;42.590;23.364;2023-02-11T13:15:58;92506.09;;;-0.31
71807;BMP280;59655;42.590;23.364;2023-02-11T13:26:20;92509.47;;;0.06
71807;BMP280;59655;42.590;23.364;2023-02-11T13:28:56;92507.84;;;0.09
71807;BMP280;59655;42.590;23.364;2023-02-11T13:31:24;92506.69;;;0.01
71807;BMP280;59655;42.590;23.364;2023-02-11T13:33:51;92507.84;;;0.09
71807;BMP280;59655;42.590;23.364;2023-02-11T13:36:27;92506.41;;;0.26
71807;BMP280;59655;42.590;23.364;2023-02-11T13:38:59;92504.19;;;0.34
71807;BMP280;59655;42.590;23.364;2023-02-11T13:41:29;92504.50;;;0.27
71807;BMP280;59655;42.590;23.364;2023-02-11T13:46:29;92497.94;;;0.50
71807;BMP280;59655;42.590;23.364;2023-02-11T13:49:18;92499.25;;;0.45
71807;BMP280;59655;42.590;23.364;2023-02-11T13:51:45;92507.03;;;0.64
71807;BMP280;59655;42.590;23.364;2023-02-11T13:54:21;92495.00;;;0.66
71807;BMP280;59655;42.590;23.364;2023-02-11T13:59:50;92482.25;;;0.59
71807;BMP280;59655;42.590;23.364;2023-02-11T14:10:52;92475.63;;;1.01
71807;BMP280;59655;42.590;23.364;2023-02-11T14:13:34;92473.31;;;0.93
71807;BMP280;59655;42.590;23.364;2023-02-11T14:21:18;92464.06;;;1.16
71807;BMP280;59655;42.590;23.364;2023-02-11T14:23:45;92469.47;;;1.13
71807;BMP280;59655;42.590;23.364;2023-02-11T14:40:15;92459.22;;;1.33
71807;BMP280;59655;42.590;23.364;2023-02-11T14:42:43;92458.97;;;1.22
71807;BMP280;59655;42.590;23.364;2023-02-11T14:45:13;92467.03;;;1.33
71807;BMP280;59655;42.590;23.364;2023-02-11T14:50:23;92467.28;;;1.11
71807;BMP280;59655;42.590;23.364;2023-02-11T14:52:50;92466.03;;;0.97
71807;BMP280;59655;42.590;23.364;2023-02-11T14:58:20;92474.94;;;0.82
71807;BMP280;59655;42.590;23.364;2023-02-11T15:01:21;92470.19;;;0.71
71807;BMP280;59655;42.590;23.364;2023-02-11T15:03:48;92474.44;;;0.59
71807;BMP280;59655;42.590;23.364;2023-02-11T15:06:41;92459.53;;;0.50
71807;BMP280;59655;42.590;23.364;2023-02-11T15:09:20;92462.56;;;0.49
71807;BMP280;59655;42.590;23.364;2023-02-11T15:11:52;92460.09;;;0.45
71807;BMP280;59655;42.590;23.364;2023-02-11T15:14:23;92460.53;;;0.44
71807;BMP280;59655;42.590;23.364;2023-02-11T15:16:52;92453.56;;;0.40
71807;BMP280;59655;42.590;23.364;2023-02-11T15:21:49;92453.28;;;0.38
71807;BMP280;59655;42.590;23.364;2023-02-11T15:24:29;92458.78;;;0.40
71807;BMP280;59655;42.590;23.364;2023-02-11T15:27:03;92452.56;;;0.38
71807;BMP280;59655;42.590;23.364;2023-02-11T15:29:45;92439.13;;;0.30
71807;BMP280;59655;42.590;23.364;2023-02-11T15:32:22;92446.38;;;0.26
71807;BMP280;59655;42.590;23.364;2023-02-11T15:34:50;92438.72;;;0.23
71807;BMP280;59655;42.590;23.364;2023-02-11T15:37:28;92431.50;;;0.17
71807;BMP280;59655;42.590;23.364;2023-02-11T15:40:09;92435.81;;;0.11
71807;BMP280;59655;42.590;23.364;2023-02-11T15:42:35;92437.00;;;0.10
71807;BMP280;59655;42.590;23.364;2023-02-11T15:47:39;92439.47;;;-0.05
71807;BMP280;59655;42.590;23.364;2023-02-11T15:50:15;92446.72;;;-0.09
71807;BMP280;59655;42.590;23.364;2023-02-11T15:52:45;92439.19;;;-0.16
71807;BMP280;59655;42.590;23.364;2023-02-11T15:55:13;92439.59;;;-0.17
71807;BMP280;59655;42.590;23.364;2023-02-11T15:57:50;92436.72;;;-0.29
71807;BMP280;59655;42.590;23.364;2023-02-11T16:00:19;92428.88;;;-0.38
71807;BMP280;59655;42.590;23.364;2023-02-11T16:02:46;92428.00;;;-0.44
71807;BMP280;59655;42.590;23.364;2023-02-11T16:07:58;92437.09;;;-0.49
71807;BMP280;59655;42.590;23.364;2023-02-11T16:10:32;92435.66;;;-0.50
71807;BMP280;59655;42.590;23.364;2023-02-11T16:18:04;92441.75;;;-0.53
71807;BMP280;59655;42.590;23.364;2023-02-11T16:20:36;92429.44;;;-0.43
71807;BMP280;59655;42.590;23.364;2023-02-11T16:23:02;92433.34;;;-0.57
71807;BMP280;59655;42.590;23.364;2023-02-11T16:25:28;92441.56;;;-0.68
71807;BMP280;59655;42.590;23.364;2023-02-11T16:27:54;92434.75;;;-0.84
71807;BMP280;59655;42.590;23.364;2023-02-11T16:32:48;92426.78;;;-0.80
71807;BMP280;59655;42.590;23.364;2023-02-11T16:35:13;92431.88;;;-0.76
71807;BMP280;59655;42.590;23.364;2023-02-11T16:37:39;92430.56;;;-0.72
71807;BMP280;59655;42.590;23.364;2023-02-11T16:40:05;92439.13;;;-0.71
71807;BMP280;59655;42.590;23.364;2023-02-11T16:42:30;92428.41;;;-0.73
71807;BMP280;59655;42.590;23.364;2023-02-11T16:44:56;92424.47;;;-0.78
71807;BMP280;59655;42.590;23.364;2023-02-11T16:47:24;92434.91;;;-0.78